createdAt,value
2019-03-29T00:02:34.200Z,8.70
2019-03-29T00:05:14.805Z,8.60
2019-03-29T00:07:55.341Z,8.70
2019-03-29T00:10:35.874Z,8.70
2019-03-29T00:13:16.314Z,8.80
2019-03-29T00:15:56.771Z,8.80
2019-03-29T00:18:37.633Z,8.80
2019-03-29T00:21:18.270Z,8.80
2019-03-29T00:24:06.682Z,8.80
2019-03-29T00:26:41.624Z,8.80
2019-03-29T00:29:22.502Z,8.70
2019-03-29T00:32:03.258Z,8.70
2019-03-29T00:34:44.264Z,8.60
2019-03-29T00:37:24.714Z,8.50
2019-03-29T00:40:05.337Z,8.50
2019-03-29T00:42:46.980Z,8.40
2019-03-29T00:45:27.550Z,8.40
2019-03-29T00:48:08.344Z,8.40
2019-03-29T00:50:49.125Z,8.40
2019-03-29T00:53:29.761Z,8.30
2019-03-29T00:56:10.425Z,8.30
2019-03-29T00:58:51.116Z,8.30
2019-03-29T01:01:31.984Z,8.40
2019-03-29T01:04:12.467Z,8.40
2019-03-29T01:06:53.355Z,8.40
2019-03-29T01:09:34.398Z,8.30
2019-03-29T01:12:15.216Z,8.30
2019-03-29T01:14:56.177Z,8.30
2019-03-29T01:17:37.093Z,8.30
2019-03-29T01:20:17.899Z,8.20
2019-03-29T01:22:58.380Z,8.20
2019-03-29T01:25:39.029Z,8.20
2019-03-29T01:28:19.699Z,8.10
2019-03-29T01:31:00.595Z,8.10
2019-03-29T01:33:42.695Z,8.20
2019-03-29T01:36:23.452Z,8.20
2019-03-29T01:39:04.427Z,8.10
2019-03-29T01:41:44.759Z,8.00
2019-03-29T01:44:25.537Z,7.90
2019-03-29T01:47:06.486Z,8.00
2019-03-29T01:49:47.328Z,7.80
2019-03-29T01:52:31.330Z,7.80
2019-03-29T01:55:10.800Z,7.80
2019-03-29T01:57:51.471Z,7.60
2019-03-29T02:01:00.089Z,7.60
2019-03-29T02:03:47.890Z,7.40
2019-03-29T02:06:30.086Z,7.50
2019-03-29T02:09:10.368Z,7.60
2019-03-29T02:11:51.050Z,7.50
2019-03-29T02:14:32.075Z,7.50
2019-03-29T02:17:12.818Z,7.40
2019-03-29T02:19:53.478Z,7.50
2019-03-29T02:22:33.992Z,7.50
2019-03-29T02:25:15.983Z,7.50
2019-03-29T02:27:56.807Z,7.50
2019-03-29T02:30:37.489Z,7.50
2019-03-29T02:33:19.592Z,7.50
2019-03-29T02:36:00.994Z,7.60
2019-03-29T02:38:55.224Z,7.40
2019-03-29T02:41:24.614Z,7.30
2019-03-29T02:44:05.333Z,7.20
2019-03-29T02:46:45.913Z,7.50
2019-03-29T02:49:26.720Z,7.50
2019-03-29T02:52:07.618Z,7.50
2019-03-29T02:54:48.489Z,7.50
2019-03-29T02:57:29.224Z,7.50
2019-03-29T03:00:10.821Z,7.50
2019-03-29T03:02:51.877Z,7.50
2019-03-29T03:05:32.723Z,7.50
2019-03-29T03:08:14.138Z,7.50
2019-03-29T03:10:56.401Z,7.50
2019-03-29T03:13:37.262Z,7.50
2019-03-29T03:16:17.856Z,7.50
2019-03-29T03:18:58.903Z,7.40
2019-03-29T03:21:39.838Z,7.40
2019-03-29T03:24:20.611Z,7.40
2019-03-29T03:27:01.412Z,7.40
2019-03-29T03:29:42.131Z,7.30
2019-03-29T03:32:22.821Z,7.30
2019-03-29T03:35:03.664Z,7.30
2019-03-29T03:37:44.351Z,7.30
2019-03-29T03:40:24.943Z,7.20
2019-03-29T03:43:05.576Z,7.30
2019-03-29T03:45:46.313Z,7.20
2019-03-29T03:48:27.473Z,7.20
2019-03-29T03:51:08.292Z,7.20
2019-03-29T03:53:49.269Z,7.20
2019-03-29T03:56:30.146Z,7.20
2019-03-29T03:59:10.553Z,7.20
2019-03-29T04:01:51.172Z,7.20
2019-03-29T04:04:31.703Z,7.10
2019-03-29T04:07:12.215Z,7.10
2019-03-29T04:09:52.855Z,7.20
2019-03-29T04:12:33.549Z,7.10
2019-03-29T04:15:14.358Z,7.10
2019-03-29T04:17:54.954Z,7.10
2019-03-29T04:20:37.088Z,7.10
2019-03-29T04:23:17.509Z,7.10
2019-03-29T04:25:58.281Z,7.10
2019-03-29T04:28:40.675Z,7.10
2019-03-29T04:31:21.661Z,7.00
2019-03-29T04:34:02.189Z,7.00
2019-03-29T04:36:42.731Z,7.00
2019-03-29T04:39:23.693Z,7.00
2019-03-29T04:42:04.129Z,7.00
2019-03-29T04:44:44.728Z,7.00
2019-03-29T04:47:26.179Z,7.00
2019-03-29T04:50:07.447Z,6.90
2019-03-29T04:52:49.729Z,6.90
2019-03-29T04:55:30.948Z,6.90
2019-03-29T04:58:11.446Z,7.00
2019-03-29T05:00:52.312Z,7.00
2019-03-29T05:03:33.282Z,7.00
2019-03-29T05:06:14.143Z,7.00
2019-03-29T05:08:55.053Z,7.00
2019-03-29T05:11:35.820Z,6.90
2019-03-29T05:14:16.425Z,6.90
2019-03-29T05:16:57.403Z,6.90
2019-03-29T05:19:36.105Z,7.00
2019-03-29T05:22:23.913Z,7.00
2019-03-29T05:25:05.266Z,7.00
2019-03-29T05:27:44.176Z,7.00
2019-03-29T05:30:31.987Z,7.00
2019-03-29T05:33:12.686Z,6.90
2019-03-29T05:35:53.298Z,7.00
2019-03-29T05:38:33.907Z,7.10
2019-03-29T05:41:14.660Z,6.90
2019-03-29T05:43:55.428Z,6.90
2019-03-29T05:46:36.012Z,6.90
2019-03-29T05:49:16.696Z,6.90
2019-03-29T05:51:57.353Z,6.80
2019-03-29T05:54:38.060Z,7.00
2019-03-29T05:57:18.778Z,7.00
2019-03-29T05:59:59.965Z,7.10
2019-03-29T06:02:41.031Z,7.10
2019-03-29T06:05:21.849Z,7.20
2019-03-29T06:08:02.642Z,7.20
2019-03-29T06:10:49.333Z,7.30
2019-03-29T06:13:26.149Z,7.30
2019-03-29T06:16:07.138Z,7.30
2019-03-29T06:18:47.932Z,7.40
2019-03-29T06:21:28.936Z,7.30
2019-03-29T06:24:09.696Z,7.30
2019-03-29T06:26:50.330Z,7.30
2019-03-29T06:29:18.810Z,7.40
2019-03-29T06:32:06.674Z,7.40
2019-03-29T06:34:46.944Z,7.50
2019-03-29T06:37:29.046Z,7.50
2019-03-29T06:40:09.920Z,7.60
2019-03-29T06:42:38.437Z,7.70
2019-03-29T06:45:26.298Z,7.80
2019-03-29T06:48:14.367Z,8.10
2019-03-29T06:50:53.334Z,8.30
2019-03-29T06:53:34.457Z,8.30
2019-03-29T06:56:15.944Z,8.50
2019-03-29T06:58:57.119Z,8.70
2019-03-29T07:01:38.244Z,9.00
2019-03-29T07:04:19.279Z,9.20
2019-03-29T07:07:00.110Z,9.30
2019-03-29T07:09:40.729Z,9.60
2019-03-29T07:12:21.443Z,9.70
2019-03-29T07:15:02.523Z,10.00
2019-03-29T07:17:43.200Z,10.10
2019-03-29T07:20:24.014Z,10.30
2019-03-29T07:23:04.917Z,10.50
2019-03-29T07:25:45.842Z,10.60
2019-03-29T07:28:26.825Z,10.70
2019-03-29T07:31:07.626Z,11.10
2019-03-29T07:33:48.627Z,11.50
2019-03-29T07:36:29.338Z,11.40
2019-03-29T07:39:10.201Z,11.30
2019-03-29T07:41:51.286Z,11.50
2019-03-29T07:44:32.149Z,11.60
2019-03-29T07:47:12.863Z,11.60
2019-03-29T07:49:53.853Z,11.50
2019-03-29T07:52:34.694Z,11.60
2019-03-29T07:55:15.647Z,11.70
2019-03-29T07:57:56.194Z,11.40
2019-03-29T08:00:37.293Z,11.70
2019-03-29T08:03:21.036Z,12.10
2019-03-29T08:06:00.984Z,12.00
2019-03-29T08:08:41.438Z,12.30
2019-03-29T08:11:26.299Z,12.40
2019-03-29T08:14:05.049Z,12.90
2019-03-29T08:16:45.774Z,13.40
2019-03-29T08:19:26.659Z,13.40
2019-03-29T08:22:07.239Z,13.60
2019-03-29T08:24:48.159Z,14.10
2019-03-29T08:27:29.016Z,14.40
2019-03-29T08:30:09.682Z,14.50
2019-03-29T08:32:50.602Z,14.70
2019-03-29T08:35:31.872Z,14.80
2019-03-29T08:38:12.280Z,14.90
2019-03-29T08:40:52.798Z,14.80
2019-03-29T08:43:33.381Z,15.00
2019-03-29T08:46:14.106Z,15.30
2019-03-29T08:48:54.643Z,15.30
2019-03-29T08:51:35.437Z,15.70
2019-03-29T08:54:15.913Z,16.20
2019-03-29T08:56:56.785Z,16.20
2019-03-29T08:59:37.320Z,16.20
2019-03-29T09:02:18.171Z,16.00
2019-03-29T09:04:58.637Z,16.70
2019-03-29T09:07:44.984Z,17.20
2019-03-29T09:10:22.316Z,17.40
2019-03-29T09:13:04.599Z,17.80
2019-03-29T09:15:45.311Z,18.00
2019-03-29T09:18:26.282Z,18.30
2019-03-29T09:21:06.869Z,17.90
2019-03-29T09:23:47.782Z,17.40
2019-03-29T09:26:28.605Z,17.90
2019-03-29T09:29:09.620Z,18.10
2019-03-29T09:31:50.449Z,18.20
2019-03-29T09:34:31.229Z,17.70
2019-03-29T09:37:11.806Z,18.20
2019-03-29T09:39:52.240Z,18.40
2019-03-29T09:42:32.835Z,17.90
2019-03-29T09:45:13.729Z,17.80
2019-03-29T09:47:55.906Z,17.90
2019-03-29T09:50:37.044Z,18.10
2019-03-29T09:53:17.487Z,18.00
2019-03-29T09:55:58.381Z,17.70
2019-03-29T09:58:38.952Z,17.90
2019-03-29T10:01:20.912Z,18.00
2019-03-29T10:04:01.597Z,18.10
2019-03-29T10:06:42.101Z,18.10
2019-03-29T10:09:23.231Z,17.70
2019-03-29T10:12:03.872Z,17.60
2019-03-29T10:14:44.900Z,18.00
2019-03-29T10:17:25.926Z,18.10
2019-03-29T10:20:06.981Z,18.10
2019-03-29T10:22:47.871Z,18.10
2019-03-29T10:25:28.873Z,18.10
2019-03-29T10:28:09.629Z,18.50
2019-03-29T10:30:50.582Z,18.90
2019-03-29T10:33:31.549Z,18.90
2019-03-29T10:36:12.423Z,18.60
2019-03-29T10:38:53.461Z,19.00
2019-03-29T10:41:37.775Z,18.90
2019-03-29T10:44:16.256Z,18.80
2019-03-29T10:46:56.967Z,18.90
2019-03-29T10:49:37.692Z,18.60
2019-03-29T10:52:18.492Z,18.70
2019-03-29T10:54:59.382Z,19.00
2019-03-29T10:57:40.546Z,18.50
2019-03-29T11:03:28.632Z,18.30
2019-03-29T11:06:15.647Z,18.40
2019-03-29T11:08:55.905Z,18.90
2019-03-29T11:11:36.922Z,19.30
2019-03-29T11:14:17.572Z,19.20
2019-03-29T11:16:58.314Z,18.60
2019-03-29T11:19:39.247Z,18.30
2019-03-29T11:22:20.164Z,18.60
2019-03-29T11:27:44.380Z,18.60
2019-03-29T11:30:13.082Z,19.20
2019-03-29T11:35:54.399Z,19.00
2019-03-29T11:38:35.453Z,19.20
2019-03-29T11:41:16.309Z,20.00
2019-03-29T11:43:57.479Z,20.00
2019-03-29T11:46:38.127Z,20.60
2019-03-29T11:49:19.449Z,19.70
2019-03-29T11:51:59.986Z,20.30
2019-03-29T11:54:40.643Z,20.70
2019-03-29T11:57:21.684Z,20.40
2019-03-29T12:00:02.505Z,20.80
2019-03-29T12:02:43.197Z,20.90
2019-03-29T12:05:23.996Z,20.60
2019-03-29T12:08:04.780Z,20.40
2019-03-29T12:10:46.011Z,20.10
2019-03-29T12:13:40.332Z,20.50
2019-03-29T12:16:09.597Z,21.20
2019-03-29T12:18:50.495Z,21.10
2019-03-29T12:21:38.844Z,21.80
2019-03-29T12:27:15.145Z,21.40
2019-03-29T12:29:56.174Z,21.20
2019-03-29T12:32:36.877Z,21.40
2019-03-29T12:35:17.770Z,20.50
2019-03-29T12:37:46.311Z,20.30
2019-03-29T12:40:34.209Z,20.30
2019-03-29T12:43:22.095Z,20.20
2019-03-29T12:46:03.000Z,21.20
2019-03-29T12:48:43.978Z,21.80
2019-03-29T12:51:24.843Z,21.80
2019-03-29T12:54:05.488Z,21.40
2019-03-29T12:56:46.344Z,21.30
2019-03-29T12:59:27.491Z,21.90
2019-03-29T13:02:08.092Z,22.00
2019-03-29T13:04:47.815Z,21.80
2019-03-29T13:07:28.671Z,21.40
2019-03-29T13:10:10.030Z,21.00
2019-03-29T13:12:51.964Z,21.70
2019-03-29T13:15:20.586Z,21.50
2019-03-29T13:18:08.417Z,20.80
2019-03-29T13:20:49.206Z,21.00
2019-03-29T13:23:30.159Z,22.00
2019-03-29T13:26:11.024Z,22.10
2019-03-29T13:28:51.965Z,21.60
2019-03-29T13:31:32.361Z,20.80
2019-03-29T13:34:13.065Z,21.30
2019-03-29T13:36:53.950Z,21.50
2019-03-29T13:39:34.516Z,21.80
2019-03-29T13:42:15.641Z,22.20
2019-03-29T13:44:55.974Z,22.10
2019-03-29T13:47:38.289Z,21.60
2019-03-29T13:50:19.073Z,20.90
2019-03-29T13:52:59.606Z,21.40
2019-03-29T13:55:40.293Z,21.20
2019-03-29T13:58:22.141Z,22.00
2019-03-29T14:01:02.952Z,22.10
2019-03-29T14:03:44.021Z,21.90
2019-03-29T14:06:24.398Z,22.10
2019-03-29T14:09:06.377Z,22.30
2019-03-29T14:11:34.857Z,22.00
2019-03-29T14:14:22.690Z,21.70
2019-03-29T14:17:07.623Z,21.60
2019-03-29T14:19:48.291Z,21.50
2019-03-29T14:22:28.926Z,21.40
2019-03-29T14:25:09.573Z,21.00
2019-03-29T14:27:49.996Z,21.30
2019-03-29T14:30:30.674Z,20.70
2019-03-29T14:33:11.369Z,20.70
2019-03-29T14:35:52.116Z,20.40
2019-03-29T14:38:32.516Z,20.70
2019-03-29T14:41:13.501Z,20.50
2019-03-29T14:43:54.535Z,20.50
2019-03-29T14:46:35.431Z,20.80
2019-03-29T14:49:15.967Z,21.20
2019-03-29T14:51:58.584Z,20.60
2019-03-29T14:54:39.432Z,20.60
2019-03-29T14:57:20.167Z,20.10
2019-03-29T15:00:02.881Z,20.40
2019-03-29T15:02:44.180Z,20.10
2019-03-29T15:05:24.711Z,19.80
2019-03-29T15:08:05.534Z,19.80
2019-03-29T15:10:46.376Z,20.20
2019-03-29T15:13:26.975Z,19.60
2019-03-29T15:16:07.939Z,19.80
2019-03-29T15:18:48.688Z,19.80
2019-03-29T15:21:29.709Z,20.20
2019-03-29T15:24:10.201Z,20.30
2019-03-29T15:26:50.956Z,20.40
2019-03-29T15:29:31.568Z,20.30
2019-03-29T15:32:12.504Z,19.70
2019-03-29T15:34:53.308Z,19.60
2019-03-29T15:37:34.111Z,19.50
2019-03-29T15:40:14.934Z,19.40
2019-03-29T15:42:55.962Z,19.30
2019-03-29T15:45:36.848Z,19.30
2019-03-29T15:48:17.565Z,19.30
2019-03-29T15:50:58.545Z,19.20
2019-03-29T15:53:39.849Z,19.10
2019-03-29T15:56:20.899Z,18.70
2019-03-29T15:59:02.882Z,18.80
2019-03-29T16:01:43.296Z,18.70
2019-03-29T16:04:23.965Z,18.80
2019-03-29T16:07:04.547Z,19.00
2019-03-29T16:09:45.341Z,18.60
2019-03-29T16:12:26.796Z,18.60
2019-03-29T16:15:11.193Z,18.60
2019-03-29T16:17:52.420Z,18.50
2019-03-29T16:20:20.902Z,18.50
2019-03-29T16:23:08.729Z,18.60
2019-03-29T16:25:56.574Z,18.60
2019-03-29T16:28:36.999Z,18.60
2019-03-29T16:31:17.613Z,18.50
2019-03-29T16:33:58.339Z,18.40
2019-03-29T16:36:39.317Z,18.40
2019-03-29T16:39:19.784Z,18.40
2019-03-29T16:42:00.743Z,18.40
2019-03-29T16:44:43.022Z,18.40
2019-03-29T16:47:23.381Z,18.30
2019-03-29T16:50:04.366Z,18.40
2019-03-29T16:52:44.874Z,18.40
2019-03-29T16:55:25.448Z,18.30
2019-03-29T16:58:06.062Z,18.30
2019-03-29T17:00:47.930Z,18.30
2019-03-29T17:03:29.197Z,18.40
2019-03-29T17:06:10.116Z,18.30
2019-03-29T17:08:52.948Z,18.20
2019-03-29T17:11:33.412Z,18.10
2019-03-29T17:14:14.368Z,18.20
2019-03-29T17:16:55.328Z,18.30
2019-03-29T17:19:36.292Z,18.30
2019-03-29T17:22:17.167Z,18.30
2019-03-29T17:24:58.065Z,18.20
2019-03-29T17:27:38.636Z,18.10
2019-03-29T17:30:19.898Z,18.10
2019-03-29T17:33:01.214Z,18.00
2019-03-29T17:35:41.858Z,18.00
2019-03-29T17:38:23.005Z,18.00
2019-03-29T17:41:03.985Z,18.00
2019-03-29T17:43:44.658Z,18.00
2019-03-29T17:46:25.224Z,18.00
2019-03-29T17:49:06.029Z,17.80
2019-03-29T17:51:46.881Z,17.70
2019-03-29T17:54:27.566Z,17.70
2019-03-29T17:57:08.080Z,17.60
2019-03-29T17:59:48.950Z,17.60
2019-03-29T18:02:29.447Z,17.60
2019-03-29T18:05:10.018Z,17.70
2019-03-29T18:07:50.504Z,17.60
2019-03-29T18:10:31.184Z,17.60
2019-03-29T18:13:11.641Z,17.60
2019-03-29T18:15:52.243Z,17.60
2019-03-29T18:18:33.037Z,17.50
2019-03-29T18:21:13.875Z,17.50
2019-03-29T18:23:54.547Z,17.50
2019-03-29T18:26:35.070Z,17.40
2019-03-29T18:29:15.576Z,17.30
2019-03-29T18:31:56.060Z,17.20
2019-03-29T18:34:38.116Z,17.20
2019-03-29T18:37:19.440Z,17.10
2019-03-29T18:39:59.801Z,17.10
2019-03-29T18:42:40.622Z,17.10
2019-03-29T18:45:21.750Z,17.10
2019-03-29T18:48:02.434Z,16.90
2019-03-29T18:50:43.336Z,16.90
2019-03-29T18:53:24.144Z,16.70
2019-03-29T18:56:04.732Z,16.70
2019-03-29T18:58:45.555Z,16.60
2019-03-29T19:01:26.207Z,16.60
2019-03-29T19:04:06.636Z,16.50
2019-03-29T19:06:47.235Z,16.40
2019-03-29T19:09:31.523Z,16.40
2019-03-29T19:12:11.091Z,16.40
2019-03-29T19:14:51.665Z,16.40
2019-03-29T19:17:32.483Z,16.30
2019-03-29T19:20:26.815Z,16.20
2019-03-29T19:22:56.001Z,16.20
2019-03-29T19:25:36.989Z,16.10
2019-03-29T19:28:17.406Z,16.00
2019-03-29T19:30:58.224Z,15.90
2019-03-29T19:33:39.046Z,15.80
2019-03-29T19:36:19.676Z,15.80
2019-03-29T19:39:00.141Z,15.80
2019-03-29T19:41:40.867Z,15.60
2019-03-29T19:44:21.822Z,15.50
2019-03-29T19:47:13.390Z,15.50
2019-03-29T19:49:45.702Z,15.50
2019-03-29T19:52:26.280Z,15.40
2019-03-29T19:55:07.116Z,15.40
2019-03-29T19:57:48.026Z,15.40
2019-03-29T20:00:28.633Z,15.40
2019-03-29T20:03:09.436Z,15.40
2019-03-29T20:05:50.185Z,15.30
2019-03-29T20:08:30.788Z,15.40
2019-03-29T20:11:11.830Z,15.30
2019-03-29T20:13:52.665Z,15.30
2019-03-29T20:16:34.946Z,15.30
2019-03-29T20:19:16.097Z,15.30
2019-03-29T20:21:56.807Z,15.30
2019-03-29T20:24:37.664Z,15.10
2019-03-29T20:27:18.727Z,15.10
2019-03-29T20:29:59.019Z,15.00
2019-03-29T20:32:39.807Z,14.90
2019-03-29T20:35:20.105Z,14.80
2019-03-29T20:38:00.557Z,14.70
2019-03-29T20:40:41.085Z,14.80
2019-03-29T20:43:21.647Z,14.60
2019-03-29T20:46:02.593Z,14.60
2019-03-29T20:48:43.283Z,14.60
2019-03-29T20:51:24.091Z,14.70
2019-03-29T20:54:04.576Z,14.70
2019-03-29T20:56:45.468Z,14.70
2019-03-29T20:59:26.049Z,14.70
2019-03-29T21:02:06.946Z,14.60
2019-03-29T21:04:47.777Z,14.50
2019-03-29T21:07:28.166Z,14.40
2019-03-29T21:10:09.384Z,14.40
2019-03-29T21:12:50.502Z,14.40
2019-03-29T21:15:31.330Z,14.30
2019-03-29T21:18:11.956Z,14.20
2019-03-29T21:20:52.858Z,14.20
2019-03-29T21:23:33.564Z,14.10
2019-03-29T21:26:14.551Z,14.20
2019-03-29T21:28:55.640Z,14.10
2019-03-29T21:31:36.612Z,14.00
2019-03-29T21:34:17.518Z,14.00
2019-03-29T21:36:58.214Z,13.90
2019-03-29T21:39:39.025Z,13.90
2019-03-29T21:42:19.819Z,13.80
2019-03-29T21:45:01.845Z,13.70
2019-03-29T21:47:42.359Z,13.80
2019-03-29T21:50:23.290Z,13.70
2019-03-29T21:53:04.175Z,13.70
2019-03-29T21:55:44.980Z,13.70
2019-03-29T21:58:25.530Z,13.60
2019-03-29T22:01:06.278Z,13.50
2019-03-29T22:03:47.508Z,13.50
2019-03-29T22:06:28.163Z,13.50
2019-03-29T22:09:08.816Z,13.50
2019-03-29T22:11:49.820Z,13.50
2019-03-29T22:14:30.221Z,13.50
2019-03-29T22:17:11.125Z,13.50
2019-03-29T22:19:51.873Z,13.50
2019-03-29T22:22:32.849Z,13.60
2019-03-29T22:25:13.200Z,13.50
2019-03-29T22:27:53.840Z,13.40
2019-03-29T22:30:34.474Z,13.40
2019-03-29T22:33:15.456Z,13.30
2019-03-29T22:35:56.106Z,13.30
2019-03-29T22:38:36.869Z,13.20
2019-03-29T22:41:17.483Z,13.20
2019-03-29T22:43:58.080Z,13.20
2019-03-29T22:46:38.432Z,13.20
2019-03-29T22:49:19.235Z,13.20
2019-03-29T22:52:00.288Z,13.20
2019-03-29T22:54:41.347Z,13.10
2019-03-29T22:57:21.960Z,13.00
2019-03-29T23:00:02.490Z,13.00
2019-03-29T23:02:43.071Z,13.00
2019-03-29T23:05:23.776Z,12.90
2019-03-29T23:08:04.675Z,13.00
2019-03-29T23:10:45.154Z,13.00
2019-03-29T23:13:25.728Z,12.90
2019-03-29T23:16:06.467Z,12.80
2019-03-29T23:18:47.164Z,12.80
2019-03-29T23:21:30.301Z,12.80
2019-03-29T23:24:10.817Z,12.70
2019-03-29T23:26:51.748Z,12.40
2019-03-29T23:29:32.480Z,12.40
2019-03-29T23:32:13.456Z,12.20
2019-03-29T23:34:54.294Z,12.10
2019-03-29T23:37:34.800Z,12.10
2019-03-29T23:40:15.566Z,12.20
2019-03-29T23:42:56.317Z,12.10
2019-03-29T23:45:36.928Z,12.10
2019-03-29T23:48:18.009Z,11.90
2019-03-29T23:50:58.774Z,11.90
2019-03-29T23:53:39.665Z,11.70
2019-03-29T23:56:20.692Z,11.80
2019-03-29T23:59:02.917Z,11.70
